ADDS METAR Data INFO
IDs: Format: Raw Decoded Include TAF

Data at: 1422 UTC 22 Feb 2018

KLCH 221416Z 15013KT 10SM SCT008 SCT019 BKN070 23/22 A3023 RMK AO2 T02330217
KLCH 221405Z 15011KT 10SM SCT006 BKN018 23/22 A3023 RMK AO2 T02280217
KLCH 221353Z 15009KT 10SM BKN006 OVC018 23/22 A3023 RMK AO2 SLP243 T02280217
KLCH 221302Z 16012KT 6SM BR OVC004 22/22 A3021 RMK AO2 T02220217
KLCH 221253Z 15010KT 7SM OVC005 22/22 A3021 RMK AO2 SLP236 T02220217
KLCH 221235Z 15008KT 8SM BKN005 BKN019 OVC055 22/21 A3020 RMK AO2 T02170211
KLCH 221226Z 15010KT 9SM SCT006 BKN019 BKN055 22/21 A3020 RMK AO2 T02170211
KLCH 221212Z 16008KT 10SM SCT006 BKN021 OVC060 22/21 A3020 RMK AO2 T02220211
KLCH 221204Z 16008KT 10SM SCT006 BKN019 OVC060 22/21 A3020 RMK AO2 T02220211
KLCH 221153Z 16007KT 10SM SCT006 BKN020 OVC070 22/22 A3020 RMK AO2 SLP232 70003 T02220217 10233 20222 53006
KLCH 221053Z AUTO 17006KT 10SM BKN006 OVC021 22/22 A3018 RMK AO2 SLP227 T02220217
KLCH 220953Z AUTO 17009G16KT 10SM OVC006 23/22 A3018 RMK AO2 SLP226 T02280217
KLCH 220853Z AUTO 17007KT 10SM BKN006 BKN021 OVC031 23/22 A3018 RMK AO2 CIG 005V011 SLP226 T02280217 53001
KLCH 220753Z AUTO 17010KT 10SM OVC006 23/22 A3017 RMK AO2 SLP224 T02280217
KLCH 220653Z AUTO 17009KT 10SM BKN008 OVC050 23/22 A3018 RMK AO2 CIG 006V010 SLP226 T02280217
KLCH 220630Z AUTO 17011KT 10SM SCT008 OVC050 23/22 A3017 RMK AO2 T02280217
KLCH 220553Z AUTO 18010G16KT 10SM BKN008 BKN027 OVC055 23/22 A3017 RMK AO2 CIG 007V011 SLP225 T02330217 10239 20233 402720217 51007
KLCH 220453Z AUTO 17011G18KT 10SM OVC008 23/22 A3017 RMK AO2 CIG 006V012 SLP223 T02330222
KLCH 220353Z 17008G18KT 10SM OVC007 23/22 A3017 RMK AO2 CIG 006V010 SLP224 T02330222
KLCH 212353Z 18012G21KT 10SM OVC013 24/22 A3011 RMK AO2 PK WND 17026/2300 SLP203 T02390217 10272 20239 53015
KLCH 212253Z 17013G25KT 10SM BKN014 OVC027 24/22 A3008 RMK AO2 PK WND 19029/2212 SLP194 T02440217
KLCH 212230Z 17013G22KT 10SM OVC014 24/22 A3008 RMK AO2 PK WND 19029/2212 T02440217
KLCH 212153Z 17018G26KT 10SM BKN015 OVC065 25/22 A3007 RMK AO2 PK WND 19029/2134 SLP190 T02500217
KLCH 212053Z 17021G27KT 10SM BKN016 OVC070 26/22 A3006 RMK AO2 PK WND 16028/1958 SLP188 T02560217 56017
KLCH 211953Z 17019G27KT 10SM BKN016 BKN065 26/22 A3007 RMK AO2 PK WND 18038/1929 SLP191 T02610217
KLCH 211934Z 17023G38KT 10SM BKN018 BKN090 26/22 A3008 RMK AO2 PK WND 18038/1929 T02560217
KLCH 211853Z 17016G27KT 10SM SCT080 SCT095 26/21 A3009 RMK AO2 PK WND 16031/1838 SLP196 T02610211
KLCH 211753Z 17018G26KT 10SM FEW080 SCT100 24/22 A3011 RMK AO2 PK WND 17026/1750 RAB03E36 SLP205 P0003 60003 T02440217 10250 20217 58004
KLCH 211735Z 18014G20KT 10SM -RA FEW011 SCT075 BKN110 23/22 A3012 RMK AO2 RAB03 P0002 T02280217
KLCH 211722Z 18011G19KT 7SM VCTS -RA SCT011 BKN070 OVC100 22/21 A3012 RMK AO2 LTG DSNT NE RAB03 P0001 T02170206
KLCH 211720Z 18013G19KT 8SM VCTS -RA BKN007 BKN020 22/21 A3012 RMK AO2 LTG DSNT NE RAB03 P0001 T02170206
KLCH 211705Z 18012G19KT 10SM -RA BKN007 BKN020 23/21 A3013 RMK AO2 RAB03 P0000 T02280211
KLCH 211653Z 17014G25KT 10SM VCTS BKN007 BKN020 23/21 A3013 RMK AO2 PK WND 16029/1633 LTG DSNT NE AND S SLP211 T02280206
KLCH 211650Z 17014G25KT 10SM VCTS BKN007 BKN020 23/21 A3013 RMK AO2 PK WND 16029/1633 LTG DSNT NE AND S
KLCH 211627Z 16018G26KT 10SM BKN007 BKN020 24/22 A3013 RMK AO2 PK WND 16027/1617 LTG DSNT SE AND S T02390217
KLCH 211553Z 16019G27KT 10SM OVC011 24/22 A3013 RMK AO2 PK WND 16028/1508 LTG DSNT E AND S SLP209 T02390222
KLCH 211500Z 16020G25KT 10SM OVC011 24/22 A3012 RMK AO2 LTG DSNT N T02390222
KLCH 211453Z 16019G26KT 10SM OVC008 24/22 A3012 RMK AO2 PK WND 14026/1449 LTG DSNT N SLP207 T02390222 53000
KLCH 211353Z 14013G21KT 10SM OVC007 23/22 A3012 RMK AO2 SLP205 T02330222
KLCH 211253Z 14013KT 10SM OVC009 23/22 A3012 RMK AO2 CIG 008V014 SLP206 T02330217
KLCH 210753Z AUTO 14008KT 10SM BKN011 OVC090 23/22 A3011 RMK AO2 CIG 008V013 SLP205 T02280217
KLCH 210745Z AUTO 14008KT 10SM BKN011 OVC090 23/22 A3012 RMK AO2 T02280217
KLCH 210653Z AUTO 15010KT 10SM SCT009 OVC090 23/22 A3012 RMK AO2 SLP208 T02280217
KLCH 210600Z AUTO 16007G18KT 10SM OVC010 23/22 A3012 RMK AO2 CIG 007V015 T02330217
KLCH 210553Z AUTO 16012G18KT 10SM OVC009 23/22 A3011 RMK AO2 CIG 007V015 SLP203 T02280217 10239 20228 402720206 51006